sensor_id;sensor_type;location;lat;lon;timestamp;P1;durP1;ratioP1;P2;durP2;ratioP2
15608;SDS011;28705;45.642;13.758;2022-07-29T00:01:15;5.28;;;4.50;;
15608;SDS011;28705;45.642;13.758;2022-07-29T00:03:42;4.55;;;4.15;;
15608;SDS011;28705;45.642;13.758;2022-07-29T00:06:09;4.57;;;4.28;;
15608;SDS011;28705;45.642;13.758;2022-07-29T00:08:36;4.65;;;4.30;;
15608;SDS011;28705;45.642;13.758;2022-07-29T00:11:03;4.65;;;4.28;;
15608;SDS011;28705;45.642;13.758;2022-07-29T00:13:30;4.38;;;4.05;;
15608;SDS011;28705;45.642;13.758;2022-07-29T00:15:57;5.05;;;4.22;;
15608;SDS011;28705;45.642;13.758;2022-07-29T00:18:26;4.50;;;4.00;;
15608;SDS011;28705;45.642;13.758;2022-07-29T00:20:53;4.70;;;3.75;;
15608;SDS011;28705;45.642;13.758;2022-07-29T00:23:20;12.75;;;4.32;;
15608;SDS011;28705;45.642;13.758;2022-07-29T00:25:47;4.93;;;4.45;;
15608;SDS011;28705;45.642;13.758;2022-07-29T00:28:14;5.28;;;4.13;;
15608;SDS011;28705;45.642;13.758;2022-07-29T00:30:44;4.50;;;4.20;;
15608;SDS011;28705;45.642;13.758;2022-07-29T00:33:11;4.95;;;4.38;;
15608;SDS011;28705;45.642;13.758;2022-07-29T00:35:39;5.00;;;4.60;;
15608;SDS011;28705;45.642;13.758;2022-07-29T00:38:11;6.35;;;5.10;;
15608;SDS011;28705;45.642;13.758;2022-07-29T00:40:38;4.72;;;4.32;;
15608;SDS011;28705;45.642;13.758;2022-07-29T00:43:06;4.82;;;4.45;;
15608;SDS011;28705;45.642;13.758;2022-07-29T00:45:33;4.07;;;3.78;;
15608;SDS011;28705;45.642;13.758;2022-07-29T00:48:00;4.63;;;4.18;;
15608;SDS011;28705;45.642;13.758;2022-07-29T00:50:28;5.03;;;4.30;;
15608;SDS011;28705;45.642;13.758;2022-07-29T00:52:56;4.43;;;4.13;;
15608;SDS011;28705;45.642;13.758;2022-07-29T00:55:24;5.00;;;4.60;;
15608;SDS011;28705;45.642;13.758;2022-07-29T00:57:51;4.53;;;4.15;;
15608;SDS011;28705;45.642;13.758;2022-07-29T01:00:19;4.88;;;4.50;;
15608;SDS011;28705;45.642;13.758;2022-07-29T01:02:48;4.97;;;4.57;;
15608;SDS011;28705;45.642;13.758;2022-07-29T01:05:16;5.57;;;5.07;;
15608;SDS011;28705;45.642;13.758;2022-07-29T01:07:44;5.25;;;4.82;;
15608;SDS011;28705;45.642;13.758;2022-07-29T01:10:14;5.25;;;4.75;;
15608;SDS011;28705;45.642;13.758;2022-07-29T01:12:42;5.05;;;4.63;;
15608;SDS011;28705;45.642;13.758;2022-07-29T01:15:10;4.68;;;4.38;;
15608;SDS011;28705;45.642;13.758;2022-07-29T01:17:41;5.22;;;4.82;;
15608;SDS011;28705;45.642;13.758;2022-07-29T01:20:12;5.20;;;4.65;;
15608;SDS011;28705;45.642;13.758;2022-07-29T01:22:53;4.90;;;4.50;;
15608;SDS011;28705;45.642;13.758;2022-07-29T01:25:53;5.05;;;4.70;;
15608;SDS011;28705;45.642;13.758;2022-07-29T01:28:42;4.65;;;4.30;;
15608;SDS011;28705;45.642;13.758;2022-07-29T01:31:31;4.65;;;4.35;;
15608;SDS011;28705;45.642;13.758;2022-07-29T01:34:05;6.13;;;5.53;;
15608;SDS011;28705;45.642;13.758;2022-07-29T01:36:35;5.70;;;5.10;;
15608;SDS011;28705;45.642;13.758;2022-07-29T01:39:08;5.45;;;5.05;;
15608;SDS011;28705;45.642;13.758;2022-07-29T01:41:37;5.20;;;4.90;;
15608;SDS011;28705;45.642;13.758;2022-07-29T01:44:13;5.32;;;4.93;;
15608;SDS011;28705;45.642;13.758;2022-07-29T01:46:46;5.30;;;4.90;;
15608;SDS011;28705;45.642;13.758;2022-07-29T01:49:20;5.40;;;5.00;;
15608;SDS011;28705;45.642;13.758;2022-07-29T01:51:50;4.88;;;4.57;;
15608;SDS011;28705;45.642;13.758;2022-07-29T01:54:20;4.82;;;4.43;;
15608;SDS011;28705;45.642;13.758;2022-07-29T01:56:55;4.82;;;4.47;;
15608;SDS011;28705;45.642;13.758;2022-07-29T01:59:25;4.28;;;3.95;;
15608;SDS011;28705;45.642;13.758;2022-07-29T02:01:54;4.90;;;4.40;;
15608;SDS011;28705;45.642;13.758;2022-07-29T02:04:23;4.90;;;4.40;;
15608;SDS011;28705;45.642;13.758;2022-07-29T02:06:52;4.80;;;4.45;;
15608;SDS011;28705;45.642;13.758;2022-07-29T02:09:20;4.95;;;4.45;;
15608;SDS011;28705;45.642;13.758;2022-07-29T02:11:51;4.30;;;3.95;;
15608;SDS011;28705;45.642;13.758;2022-07-29T02:14:21;5.32;;;4.28;;
15608;SDS011;28705;45.642;13.758;2022-07-29T02:16:52;4.55;;;4.15;;
15608;SDS011;28705;45.642;13.758;2022-07-29T02:19:21;4.50;;;4.13;;
15608;SDS011;28705;45.642;13.758;2022-07-29T02:21:51;4.80;;;4.40;;
15608;SDS011;28705;45.642;13.758;2022-07-29T02:24:19;4.22;;;3.92;;
15608;SDS011;28705;45.642;13.758;2022-07-29T02:26:48;4.97;;;4.57;;
15608;SDS011;28705;45.642;13.758;2022-07-29T02:29:18;3.85;;;3.60;;
15608;SDS011;28705;45.642;13.758;2022-07-29T02:31:47;4.25;;;3.88;;
15608;SDS011;28705;45.642;13.758;2022-07-29T02:34:18;4.55;;;4.25;;
15608;SDS011;28705;45.642;13.758;2022-07-29T02:36:46;4.72;;;4.13;;
15608;SDS011;28705;45.642;13.758;2022-07-29T02:39:14;4.82;;;4.43;;
15608;SDS011;28705;45.642;13.758;2022-07-29T02:41:42;4.78;;;4.38;;
15608;SDS011;28705;45.642;13.758;2022-07-29T02:44:12;4.57;;;4.18;;
15608;SDS011;28705;45.642;13.758;2022-07-29T02:46:41;7.97;;;3.92;;
15608;SDS011;28705;45.642;13.758;2022-07-29T02:49:15;4.45;;;4.13;;
15608;SDS011;28705;45.642;13.758;2022-07-29T02:51:46;4.57;;;4.28;;
15608;SDS011;28705;45.642;13.758;2022-07-29T02:54:20;4.72;;;4.25;;
15608;SDS011;28705;45.642;13.758;2022-07-29T02:56:52;4.75;;;4.35;;
15608;SDS011;28705;45.642;13.758;2022-07-29T02:59:22;4.85;;;4.47;;
15608;SDS011;28705;45.642;13.758;2022-07-29T03:01:52;4.47;;;4.15;;
15608;SDS011;28705;45.642;13.758;2022-07-29T03:04:23;3.92;;;3.63;;
15608;SDS011;28705;45.642;13.758;2022-07-29T03:06:53;4.43;;;4.03;;
15608;SDS011;28705;45.642;13.758;2022-07-29T03:09:21;4.18;;;3.88;;
15608;SDS011;28705;45.642;13.758;2022-07-29T03:11:50;4.70;;;4.25;;
15608;SDS011;28705;45.642;13.758;2022-07-29T03:14:19;4.00;;;3.70;;
15608;SDS011;28705;45.642;13.758;2022-07-29T03:16:48;4.03;;;3.63;;
15608;SDS011;28705;45.642;13.758;2022-07-29T03:19:16;4.30;;;3.95;;
15608;SDS011;28705;45.642;13.758;2022-07-29T03:21:46;4.15;;;3.85;;
15608;SDS011;28705;45.642;13.758;2022-07-29T03:24:26;4.30;;;3.85;;
15608;SDS011;28705;45.642;13.758;2022-07-29T03:26:54;4.82;;;3.65;;
15608;SDS011;28705;45.642;13.758;2022-07-29T03:29:22;4.18;;;3.78;;
15608;SDS011;28705;45.642;13.758;2022-07-29T03:31:50;4.25;;;3.88;;
15608;SDS011;28705;45.642;13.758;2022-07-29T03:34:17;4.20;;;3.83;;
15608;SDS011;28705;45.642;13.758;2022-07-29T03:36:44;4.20;;;3.90;;
15608;SDS011;28705;45.642;13.758;2022-07-29T03:39:13;4.32;;;3.92;;
15608;SDS011;28705;45.642;13.758;2022-07-29T03:41:52;4.43;;;4.03;;
15608;SDS011;28705;45.642;13.758;2022-07-29T03:44:21;4.35;;;3.75;;
15608;SDS011;28705;45.642;13.758;2022-07-29T03:46:50;4.68;;;4.28;;
15608;SDS011;28705;45.642;13.758;2022-07-29T03:49:19;4.85;;;3.75;;
15608;SDS011;28705;45.642;13.758;2022-07-29T03:51:49;3.88;;;3.58;;
15608;SDS011;28705;45.642;13.758;2022-07-29T03:54:18;4.55;;;4.15;;
15608;SDS011;28705;45.642;13.758;2022-07-29T03:56:45;4.32;;;4.03;;
15608;SDS011;28705;45.642;13.758;2022-07-29T03:59:15;4.13;;;3.72;;
15608;SDS011;28705;45.642;13.758;2022-07-29T04:01:42;4.30;;;4.00;;
15608;SDS011;28705;45.642;13.758;2022-07-29T04:04:09;4.10;;;3.72;;
15608;SDS011;28705;45.642;13.758;2022-07-29T04:06:37;4.13;;;3.83;;
15608;SDS011;28705;45.642;13.758;2022-07-29T04:09:06;4.22;;;3.83;;
15608;SDS011;28705;45.642;13.758;2022-07-29T04:11:35;4.22;;;3.92;;
15608;SDS011;28705;45.642;13.758;2022-07-29T04:14:05;4.38;;;4.00;;
15608;SDS011;28705;45.642;13.758;2022-07-29T04:16:32;5.85;;;4.28;;
15608;SDS011;28705;45.642;13.758;2022-07-29T04:18:59;4.50;;;4.07;;
15608;SDS011;28705;45.642;13.758;2022-07-29T04:21:27;3.85;;;3.47;;
15608;SDS011;28705;45.642;13.758;2022-07-29T04:23:54;3.90;;;3.60;;
15608;SDS011;28705;45.642;13.758;2022-07-29T04:26:21;4.85;;;4.07;;
15608;SDS011;28705;45.642;13.758;2022-07-29T04:28:49;4.20;;;3.90;;
15608;SDS011;28705;45.642;13.758;2022-07-29T04:31:16;4.60;;;4.13;;
15608;SDS011;28705;45.642;13.758;2022-07-29T04:33:43;4.82;;;4.43;;
15608;SDS011;28705;45.642;13.758;2022-07-29T04:36:10;4.22;;;3.83;;
15608;SDS011;28705;45.642;13.758;2022-07-29T04:38:37;4.68;;;4.28;;
15608;SDS011;28705;45.642;13.758;2022-07-29T04:41:05;4.55;;;4.15;;
15608;SDS011;28705;45.642;13.758;2022-07-29T04:43:33;4.63;;;4.22;;
15608;SDS011;28705;45.642;13.758;2022-07-29T04:46:01;4.13;;;3.42;;
15608;SDS011;28705;45.642;13.758;2022-07-29T04:48:29;4.28;;;3.88;;
15608;SDS011;28705;45.642;13.758;2022-07-29T04:50:56;4.72;;;4.18;;
15608;SDS011;28705;45.642;13.758;2022-07-29T04:53:23;5.10;;;3.80;;
15608;SDS011;28705;45.642;13.758;2022-07-29T04:55:51;4.65;;;4.28;;
15608;SDS011;28705;45.642;13.758;2022-07-29T04:58:18;4.00;;;3.70;;
15608;SDS011;28705;45.642;13.758;2022-07-29T05:00:48;4.47;;;4.10;;
15608;SDS011;28705;45.642;13.758;2022-07-29T05:03:16;5.00;;;4.45;;
15608;SDS011;28705;45.642;13.758;2022-07-29T05:05:43;4.15;;;3.75;;
15608;SDS011;28705;45.642;13.758;2022-07-29T05:08:10;4.95;;;3.70;;
15608;SDS011;28705;45.642;13.758;2022-07-29T05:10:37;4.38;;;3.97;;
15608;SDS011;28705;45.642;13.758;2022-07-29T05:13:04;3.67;;;3.38;;
15608;SDS011;28705;45.642;13.758;2022-07-29T05:15:32;4.20;;;3.80;;
15608;SDS011;28705;45.642;13.758;2022-07-29T05:17:59;4.18;;;3.88;;
15608;SDS011;28705;45.642;13.758;2022-07-29T05:20:28;4.65;;;3.75;;
15608;SDS011;28705;45.642;13.758;2022-07-29T05:22:55;3.92;;;3.63;;
15608;SDS011;28705;45.642;13.758;2022-07-29T05:25:23;5.30;;;4.25;;
15608;SDS011;28705;45.642;13.758;2022-07-29T05:27:50;3.78;;;3.38;;
15608;SDS011;28705;45.642;13.758;2022-07-29T05:30:17;4.22;;;3.92;;
15608;SDS011;28705;45.642;13.758;2022-07-29T05:32:44;4.90;;;3.80;;
15608;SDS011;28705;45.642;13.758;2022-07-29T05:35:12;5.93;;;4.13;;
15608;SDS011;28705;45.642;13.758;2022-07-29T05:37:41;3.90;;;3.60;;
15608;SDS011;28705;45.642;13.758;2022-07-29T05:40:08;4.68;;;3.70;;
15608;SDS011;28705;45.642;13.758;2022-07-29T05:42:36;4.55;;;3.63;;
15608;SDS011;28705;45.642;13.758;2022-07-29T05:45:04;5.03;;;4.15;;
15608;SDS011;28705;45.642;13.758;2022-07-29T05:47:31;4.72;;;3.78;;
15608;SDS011;28705;45.642;13.758;2022-07-29T05:49:58;5.35;;;4.45;;
15608;SDS011;28705;45.642;13.758;2022-07-29T05:52:25;4.32;;;3.92;;
15608;SDS011;28705;45.642;13.758;2022-07-29T05:54:54;5.13;;;4.72;;
15608;SDS011;28705;45.642;13.758;2022-07-29T05:57:22;6.50;;;4.35;;
15608;SDS011;28705;45.642;13.758;2022-07-29T05:59:50;5.32;;;4.30;;
15608;SDS011;28705;45.642;13.758;2022-07-29T06:02:17;5.90;;;4.03;;
15608;SDS011;28705;45.642;13.758;2022-07-29T06:04:44;5.70;;;4.47;;
15608;SDS011;28705;45.642;13.758;2022-07-29T06:07:11;5.38;;;4.90;;
15608;SDS011;28705;45.642;13.758;2022-07-29T06:09:38;5.80;;;4.75;;
15608;SDS011;28705;45.642;13.758;2022-07-29T06:12:07;4.32;;;3.92;;
15608;SDS011;28705;45.642;13.758;2022-07-29T06:14:34;7.78;;;4.80;;
15608;SDS011;28705;45.642;13.758;2022-07-29T06:17:03;5.35;;;4.68;;
15608;SDS011;28705;45.642;13.758;2022-07-29T06:19:30;4.60;;;3.88;;
15608;SDS011;28705;45.642;13.758;2022-07-29T06:21:57;5.18;;;4.68;;
15608;SDS011;28705;45.642;13.758;2022-07-29T06:24:24;4.78;;;4.38;;
15608;SDS011;28705;45.642;13.758;2022-07-29T06:26:52;5.43;;;4.05;;
15608;SDS011;28705;45.642;13.758;2022-07-29T06:29:20;5.53;;;4.80;;
15608;SDS011;28705;45.642;13.758;2022-07-29T06:31:47;4.75;;;4.22;;
15608;SDS011;28705;45.642;13.758;2022-07-29T06:34:14;5.03;;;4.22;;
15608;SDS011;28705;45.642;13.758;2022-07-29T06:36:41;12.50;;;5.45;;
15608;SDS011;28705;45.642;13.758;2022-07-29T06:39:08;5.65;;;4.38;;
15608;SDS011;28705;45.642;13.758;2022-07-29T06:41:35;7.68;;;4.63;;
15608;SDS011;28705;45.642;13.758;2022-07-29T06:44:02;8.05;;;5.15;;
15608;SDS011;28705;45.642;13.758;2022-07-29T06:46:31;5.10;;;4.18;;
15608;SDS011;28705;45.642;13.758;2022-07-29T06:48:58;5.78;;;4.22;;
15608;SDS011;28705;45.642;13.758;2022-07-29T06:51:26;4.60;;;4.25;;
15608;SDS011;28705;45.642;13.758;2022-07-29T06:53:53;4.63;;;4.32;;
15608;SDS011;28705;45.642;13.758;2022-07-29T06:56:20;4.82;;;4.38;;
15608;SDS011;28705;45.642;13.758;2022-07-29T06:58:47;4.93;;;4.43;;
15608;SDS011;28705;45.642;13.758;2022-07-29T07:01:15;4.82;;;4.45;;
15608;SDS011;28705;45.642;13.758;2022-07-29T07:03:43;6.25;;;4.32;;
15608;SDS011;28705;45.642;13.758;2022-07-29T07:06:10;4.93;;;4.10;;
15608;SDS011;28705;45.642;13.758;2022-07-29T07:08:37;4.72;;;4.32;;
15608;SDS011;28705;45.642;13.758;2022-07-29T07:11:04;5.97;;;5.43;;
15608;SDS011;28705;45.642;13.758;2022-07-29T07:13:32;7.05;;;4.80;;
15608;SDS011;28705;45.642;13.758;2022-07-29T07:15:59;6.85;;;4.75;;
15608;SDS011;28705;45.642;13.758;2022-07-29T07:18:27;5.40;;;4.88;;
15608;SDS011;28705;45.642;13.758;2022-07-29T07:20:55;6.68;;;4.70;;
15608;SDS011;28705;45.642;13.758;2022-07-29T07:23:24;6.47;;;5.00;;
15608;SDS011;28705;45.642;13.758;2022-07-29T07:25:51;6.35;;;5.07;;
15608;SDS011;28705;45.642;13.758;2022-07-29T07:28:18;5.50;;;5.00;;
15608;SDS011;28705;45.642;13.758;2022-07-29T07:30:45;7.03;;;5.15;;
15608;SDS011;28705;45.642;13.758;2022-07-29T07:33:12;7.80;;;5.25;;
15608;SDS011;28705;45.642;13.758;2022-07-29T07:35:40;7.82;;;5.35;;
15608;SDS011;28705;45.642;13.758;2022-07-29T07:38:08;6.97;;;4.95;;
15608;SDS011;28705;45.642;13.758;2022-07-29T07:40:35;5.68;;;4.93;;
15608;SDS011;28705;45.642;13.758;2022-07-29T07:43:02;6.80;;;5.18;;
15608;SDS011;28705;45.642;13.758;2022-07-29T07:45:29;5.50;;;5.03;;
15608;SDS011;28705;45.642;13.758;2022-07-29T07:47:57;5.88;;;5.28;;
15608;SDS011;28705;45.642;13.758;2022-07-29T07:50:24;5.88;;;4.65;;
15608;SDS011;28705;45.642;13.758;2022-07-29T07:52:53;9.63;;;5.00;;
15608;SDS011;28705;45.642;13.758;2022-07-29T07:55:24;6.00;;;5.35;;
15608;SDS011;28705;45.642;13.758;2022-07-29T07:57:52;5.70;;;4.68;;
15608;SDS011;28705;45.642;13.758;2022-07-29T08:00:20;5.38;;;4.85;;
15608;SDS011;28705;45.642;13.758;2022-07-29T08:02:47;7.68;;;4.78;;
15608;SDS011;28705;45.642;13.758;2022-07-29T08:05:14;5.15;;;4.65;;
15608;SDS011;28705;45.642;13.758;2022-07-29T08:07:43;9.20;;;5.75;;
15608;SDS011;28705;45.642;13.758;2022-07-29T08:10:11;8.38;;;5.32;;
15608;SDS011;28705;45.642;13.758;2022-07-29T08:12:40;6.45;;;5.72;;
15608;SDS011;28705;45.642;13.758;2022-07-29T08:15:08;5.85;;;5.30;;
15608;SDS011;28705;45.642;13.758;2022-07-29T08:17:35;5.45;;;4.95;;
15608;SDS011;28705;45.642;13.758;2022-07-29T08:20:02;5.70;;;5.20;;
15608;SDS011;28705;45.642;13.758;2022-07-29T08:22:30;5.28;;;4.65;;
15608;SDS011;28705;45.642;13.758;2022-07-29T08:24:57;4.80;;;4.35;;
15608;SDS011;28705;45.642;13.758;2022-07-29T08:27:24;6.93;;;5.78;;
15608;SDS011;28705;45.642;13.758;2022-07-29T08:29:52;6.05;;;5.60;;
15608;SDS011;28705;45.642;13.758;2022-07-29T08:32:20;5.80;;;5.15;;
15608;SDS011;28705;45.642;13.758;2022-07-29T08:34:47;6.88;;;5.32;;
15608;SDS011;28705;45.642;13.758;2022-07-29T08:37:14;5.55;;;5.03;;
15608;SDS011;28705;45.642;13.758;2022-07-29T08:39:41;5.63;;;5.07;;
15608;SDS011;28705;45.642;13.758;2022-07-29T08:42:08;5.05;;;4.65;;
15608;SDS011;28705;45.642;13.758;2022-07-29T08:44:36;5.43;;;4.93;;
15608;SDS011;28705;45.642;13.758;2022-07-29T08:47:05;5.13;;;4.63;;
15608;SDS011;28705;45.642;13.758;2022-07-29T08:49:32;6.10;;;5.28;;
15608;SDS011;28705;45.642;13.758;2022-07-29T08:52:00;5.25;;;4.85;;
15608;SDS011;28705;45.642;13.758;2022-07-29T09:06:32;5.53;;;5.13;;
15608;SDS011;28705;45.642;13.758;2022-07-29T09:09:03;5.97;;;5.40;;
15608;SDS011;28705;45.642;13.758;2022-07-29T09:11:31;5.57;;;5.18;;
15608;SDS011;28705;45.642;13.758;2022-07-29T09:13:59;6.18;;;5.68;;
15608;SDS011;28705;45.642;13.758;2022-07-29T09:16:26;8.27;;;5.70;;
15608;SDS011;28705;45.642;13.758;2022-07-29T09:19:18;7.70;;;6.88;;
15608;SDS011;28705;45.642;13.758;2022-07-29T09:21:51;6.60;;;5.75;;
15608;SDS011;28705;45.642;13.758;2022-07-29T09:24:26;9.00;;;6.00;;
15608;SDS011;28705;45.642;13.758;2022-07-29T09:27:04;9.55;;;5.90;;
15608;SDS011;28705;45.642;13.758;2022-07-29T09:29:35;6.72;;;6.03;;
15608;SDS011;28705;45.642;13.758;2022-07-29T09:32:05;7.82;;;6.60;;
15608;SDS011;28705;45.642;13.758;2022-07-29T09:34:34;6.70;;;6.10;;
15608;SDS011;28705;45.642;13.758;2022-07-29T09:37:03;7.95;;;5.95;;
15608;SDS011;28705;45.642;13.758;2022-07-29T09:39:31;6.72;;;5.95;;
15608;SDS011;28705;45.642;13.758;2022-07-29T09:42:01;5.68;;;5.10;;
15608;SDS011;28705;45.642;13.758;2022-07-29T09:44:40;6.57;;;5.97;;
15608;SDS011;28705;45.642;13.758;2022-07-29T09:47:08;7.15;;;6.45;;
15608;SDS011;28705;45.642;13.758;2022-07-29T09:49:36;6.85;;;6.18;;
15608;SDS011;28705;45.642;13.758;2022-07-29T09:52:18;6.70;;;6.20;;
15608;SDS011;28705;45.642;13.758;2022-07-29T09:54:45;6.35;;;5.85;;
15608;SDS011;28705;45.642;13.758;2022-07-29T09:57:22;6.47;;;5.85;;
15608;SDS011;28705;45.642;13.758;2022-07-29T09:59:57;6.82;;;6.10;;
15608;SDS011;28705;45.642;13.758;2022-07-29T10:02:28;6.70;;;6.20;;
15608;SDS011;28705;45.642;13.758;2022-07-29T10:04:56;6.68;;;6.03;;
15608;SDS011;28705;45.642;13.758;2022-07-29T10:07:25;6.40;;;5.88;;
15608;SDS011;28705;45.642;13.758;2022-07-29T10:09:52;6.32;;;5.82;;
15608;SDS011;28705;45.642;13.758;2022-07-29T10:12:20;8.90;;;6.60;;
15608;SDS011;28705;45.642;13.758;2022-07-29T10:14:48;6.32;;;5.55;;
15608;SDS011;28705;45.642;13.758;2022-07-29T10:17:16;7.53;;;6.70;;
15608;SDS011;28705;45.642;13.758;2022-07-29T10:19:44;6.03;;;5.53;;
15608;SDS011;28705;45.642;13.758;2022-07-29T10:22:11;7.57;;;6.60;;
15608;SDS011;28705;45.642;13.758;2022-07-29T10:24:39;6.75;;;6.13;;
15608;SDS011;28705;45.642;13.758;2022-07-29T10:27:07;6.80;;;6.25;;
15608;SDS011;28705;45.642;13.758;2022-07-29T10:29:34;6.88;;;6.28;;
15608;SDS011;28705;45.642;13.758;2022-07-29T10:32:08;6.35;;;5.75;;
15608;SDS011;28705;45.642;13.758;2022-07-29T10:34:55;7.25;;;6.50;;
15608;SDS011;28705;45.642;13.758;2022-07-29T10:37:35;7.45;;;5.93;;
15608;SDS011;28705;45.642;13.758;2022-07-29T10:40:17;6.53;;;5.85;;
15608;SDS011;28705;45.642;13.758;2022-07-29T10:43:14;5.97;;;5.45;;
15608;SDS011;28705;45.642;13.758;2022-07-29T10:45:45;6.50;;;5.75;;
15608;SDS011;28705;45.642;13.758;2022-07-29T10:48:14;6.07;;;5.63;;
15608;SDS011;28705;45.642;13.758;2022-07-29T10:50:54;6.53;;;6.13;;
15608;SDS011;28705;45.642;13.758;2022-07-29T10:53:23;7.10;;;6.53;;
15608;SDS011;28705;45.642;13.758;2022-07-29T10:56:07;6.35;;;5.85;;
15608;SDS011;28705;45.642;13.758;2022-07-29T11:01:53;5.93;;;5.53;;
15608;SDS011;28705;45.642;13.758;2022-07-29T11:07:25;6.88;;;6.38;;
15608;SDS011;28705;45.642;13.758;2022-07-29T11:10:19;6.63;;;6.03;;
15608;SDS011;28705;45.642;13.758;2022-07-29T11:12:48;7.03;;;6.38;;
15608;SDS011;28705;45.642;13.758;2022-07-29T11:15:16;6.45;;;5.95;;
15608;SDS011;28705;45.642;13.758;2022-07-29T11:20:35;7.13;;;6.50;;
15608;SDS011;28705;45.642;13.758;2022-07-29T11:23:19;6.65;;;6.10;;
15608;SDS011;28705;45.642;13.758;2022-07-29T11:28:53;6.07;;;5.57;;
15608;SDS011;28705;45.642;13.758;2022-07-29T11:31:32;6.70;;;6.10;;
15608;SDS011;28705;45.642;13.758;2022-07-29T11:34:16;6.25;;;5.85;;
15608;SDS011;28705;45.642;13.758;2022-07-29T11:42:50;5.82;;;5.43;;
15608;SDS011;28705;45.642;13.758;2022-07-29T11:45:23;6.43;;;5.93;;
15608;SDS011;28705;45.642;13.758;2022-07-29T11:47:57;6.75;;;6.25;;
15608;SDS011;28705;45.642;13.758;2022-07-29T11:50:28;7.50;;;6.28;;
15608;SDS011;28705;45.642;13.758;2022-07-29T11:52:57;6.78;;;6.10;;
15608;SDS011;28705;45.642;13.758;2022-07-29T11:55:24;6.35;;;5.75;;
15608;SDS011;28705;45.642;13.758;2022-07-29T11:57:52;6.35;;;5.85;;
15608;SDS011;28705;45.642;13.758;2022-07-29T12:00:23;6.20;;;5.70;;
15608;SDS011;28705;45.642;13.758;2022-07-29T12:02:53;6.53;;;6.03;;
15608;SDS011;28705;45.642;13.758;2022-07-29T12:05:20;7.40;;;6.70;;
15608;SDS011;28705;45.642;13.758;2022-07-29T12:07:47;6.30;;;5.90;;
15608;SDS011;28705;45.642;13.758;2022-07-29T12:10:15;5.85;;;5.45;;
15608;SDS011;28705;45.642;13.758;2022-07-29T12:12:42;6.35;;;5.85;;
15608;SDS011;28705;45.642;13.758;2022-07-29T12:15:13;6.95;;;6.30;;
15608;SDS011;28705;45.642;13.758;2022-07-29T12:17:43;6.07;;;5.50;;
15608;SDS011;28705;45.642;13.758;2022-07-29T12:20:11;6.22;;;5.72;;
15608;SDS011;28705;45.642;13.758;2022-07-29T12:22:42;6.43;;;6.03;;
15608;SDS011;28705;45.642;13.758;2022-07-29T12:25:10;6.60;;;6.10;;
15608;SDS011;28705;45.642;13.758;2022-07-29T12:27:40;5.85;;;5.40;;
15608;SDS011;28705;45.642;13.758;2022-07-29T12:30:09;6.45;;;5.95;;
15608;SDS011;28705;45.642;13.758;2022-07-29T12:32:38;6.18;;;5.68;;
15608;SDS011;28705;45.642;13.758;2022-07-29T12:35:08;6.47;;;5.47;;
15608;SDS011;28705;45.642;13.758;2022-07-29T12:37:37;5.88;;;5.38;;
15608;SDS011;28705;45.642;13.758;2022-07-29T12:40:06;5.97;;;5.47;;
15608;SDS011;28705;45.642;13.758;2022-07-29T12:42:35;5.75;;;5.32;;
15608;SDS011;28705;45.642;13.758;2022-07-29T12:45:03;5.88;;;5.47;;
15608;SDS011;28705;45.642;13.758;2022-07-29T12:47:31;5.82;;;5.35;;
15608;SDS011;28705;45.642;13.758;2022-07-29T12:50:09;5.85;;;5.43;;
15608;SDS011;28705;45.642;13.758;2022-07-29T12:52:37;5.30;;;5.00;;
15608;SDS011;28705;45.642;13.758;2022-07-29T12:55:04;5.57;;;5.15;;
15608;SDS011;28705;45.642;13.758;2022-07-29T12:57:31;5.97;;;5.47;;
15608;SDS011;28705;45.642;13.758;2022-07-29T13:00:11;6.55;;;5.95;;
15608;SDS011;28705;45.642;13.758;2022-07-29T13:02:40;6.85;;;5.60;;
15608;SDS011;28705;45.642;13.758;2022-07-29T13:05:10;5.72;;;5.32;;
15608;SDS011;28705;45.642;13.758;2022-07-29T13:07:38;5.35;;;4.57;;
15608;SDS011;28705;45.642;13.758;2022-07-29T13:10:12;5.60;;;5.15;;
15608;SDS011;28705;45.642;13.758;2022-07-29T13:15:39;6.13;;;5.55;;
15608;SDS011;28705;45.642;13.758;2022-07-29T13:20:54;5.78;;;5.28;;
15608;SDS011;28705;45.642;13.758;2022-07-29T13:23:29;5.45;;;4.95;;
15608;SDS011;28705;45.642;13.758;2022-07-29T13:26:04;5.60;;;5.10;;
15608;SDS011;28705;45.642;13.758;2022-07-29T13:28:31;5.38;;;4.78;;
15608;SDS011;28705;45.642;13.758;2022-07-29T13:30:59;5.10;;;4.70;;
15608;SDS011;28705;45.642;13.758;2022-07-29T13:33:26;5.38;;;4.88;;
15608;SDS011;28705;45.642;13.758;2022-07-29T13:35:54;5.63;;;5.13;;
15608;SDS011;28705;45.642;13.758;2022-07-29T13:38:22;5.30;;;4.82;;
15608;SDS011;28705;45.642;13.758;2022-07-29T13:40:48;5.53;;;4.82;;
15608;SDS011;28705;45.642;13.758;2022-07-29T13:43:15;5.10;;;4.60;;
15608;SDS011;28705;45.642;13.758;2022-07-29T13:45:42;5.88;;;4.53;;
15608;SDS011;28705;45.642;13.758;2022-07-29T13:48:09;4.90;;;4.50;;
15608;SDS011;28705;45.642;13.758;2022-07-29T13:50:36;4.55;;;4.18;;
15608;SDS011;28705;45.642;13.758;2022-07-29T13:53:05;5.45;;;5.03;;
15608;SDS011;28705;45.642;13.758;2022-07-29T13:55:31;5.93;;;4.45;;
15608;SDS011;28705;45.642;13.758;2022-07-29T13:57:59;5.63;;;5.07;;
15608;SDS011;28705;45.642;13.758;2022-07-29T14:00:26;4.97;;;4.53;;
15608;SDS011;28705;45.642;13.758;2022-07-29T14:02:53;5.28;;;4.75;;
15608;SDS011;28705;45.642;13.758;2022-07-29T14:05:20;6.63;;;5.28;;
15608;SDS011;28705;45.642;13.758;2022-07-29T14:07:47;5.20;;;4.70;;
15608;SDS011;28705;45.642;13.758;2022-07-29T14:10:15;5.82;;;5.28;;
15608;SDS011;28705;45.642;13.758;2022-07-29T14:12:42;5.32;;;4.47;;
15608;SDS011;28705;45.642;13.758;2022-07-29T14:15:09;5.80;;;4.78;;
15608;SDS011;28705;45.642;13.758;2022-07-29T14:17:36;5.47;;;4.97;;
15608;SDS011;28705;45.642;13.758;2022-07-29T14:20:04;6.03;;;4.80;;
15608;SDS011;28705;45.642;13.758;2022-07-29T14:22:31;6.72;;;4.50;;
15608;SDS011;28705;45.642;13.758;2022-07-29T14:24:58;4.85;;;4.20;;
15608;SDS011;28705;45.642;13.758;2022-07-29T14:27:27;6.32;;;4.68;;
15608;SDS011;28705;45.642;13.758;2022-07-29T14:29:54;4.90;;;4.50;;
15608;SDS011;28705;45.642;13.758;2022-07-29T14:32:20;4.80;;;4.45;;
15608;SDS011;28705;45.642;13.758;2022-07-29T14:34:47;5.30;;;4.80;;
15608;SDS011;28705;45.642;13.758;2022-07-29T14:37:14;5.05;;;4.57;;
15608;SDS011;28705;45.642;13.758;2022-07-29T14:39:41;6.13;;;5.63;;
15608;SDS011;28705;45.642;13.758;2022-07-29T14:42:08;4.60;;;4.30;;
15608;SDS011;28705;45.642;13.758;2022-07-29T14:44:37;5.60;;;4.47;;
15608;SDS011;28705;45.642;13.758;2022-07-29T14:47:04;5.38;;;4.97;;
15608;SDS011;28705;45.642;13.758;2022-07-29T14:49:32;4.68;;;4.38;;
15608;SDS011;28705;45.642;13.758;2022-07-29T14:51:59;4.97;;;4.57;;
15608;SDS011;28705;45.642;13.758;2022-07-29T14:54:26;5.03;;;4.68;;
15608;SDS011;28705;45.642;13.758;2022-07-29T14:56:53;5.15;;;4.68;;
15608;SDS011;28705;45.642;13.758;2022-07-29T14:59:22;4.82;;;3.95;;
15608;SDS011;28705;45.642;13.758;2022-07-29T15:01:50;5.10;;;4.63;;
15608;SDS011;28705;45.642;13.758;2022-07-29T15:04:17;4.32;;;4.03;;
15608;SDS011;28705;45.642;13.758;2022-07-29T15:06:44;4.78;;;4.38;;
15608;SDS011;28705;45.642;13.758;2022-07-29T15:09:11;6.00;;;4.32;;
15608;SDS011;28705;45.642;13.758;2022-07-29T15:11:38;6.35;;;4.65;;
15608;SDS011;28705;45.642;13.758;2022-07-29T15:14:05;4.38;;;4.07;;
15608;SDS011;28705;45.642;13.758;2022-07-29T15:16:32;4.47;;;4.18;;
15608;SDS011;28705;45.642;13.758;2022-07-29T15:19:02;5.93;;;4.35;;
15608;SDS011;28705;45.642;13.758;2022-07-29T15:21:29;4.97;;;4.57;;